N1DJS Weather Reports


Display with metric or nautical units.
time (UTC)temp
F
wind
direction
speed
MPH
gust
MPH
rain 1hr
in
rain 24hr
in
rain mn
in
humidity
%
barometer
mb
20260903033002 76 211 0.0 0.0 0.00 0.00 0.00 90 1010.9
20260903031505 76 211 0.0 0.0 0.00 0.00 0.00 90 1010.9
20260903030002 76 211 0.0 0.0 0.00 0.00 0.00 89 1011.1
20260903024502 77 211 0.0 0.0 0.00 0.00 0.00 88 1011.2
20260903023107 77 211 0.0 0.0 0.00 0.00 0.00 88 1011.2
20260903021608 78 211 0.0 0.0 0.00 0.00 0.00 88 1011.2
20260903020103 78 211 0.0 0.0 0.00 0.00 0.00 86 1011.2
20260903014607 79 211 0.0 0.0 0.00 0.00 0.00 85 1011.1
20260903013105 79 211 0.0 0.0 0.00 0.00 0.00 84 1011.1
20260903011559 80 211 0.0 0.0 0.00 0.00 0.00 83 1010.9
20260903010058 82 211 0.0 0.0 0.00 0.00 0.00 80 1010.7
20260903004557 83 211 0.0 0.0 0.00 0.00 0.00 77 1010.5
20260903003057 85 211 0.0 0.0 0.00 0.00 0.00 73 1010.5
20260903001602 86 211 0.0 0.0 0.00 0.00 0.00 70 1010.4
20260903000058 87 211 0.0 0.0 0.00 0.00 0.00 68 1010.4
20260902234616 88 211 0.0 0.0 0.00 0.00 0.00 66 1010.4
20260902233054 90 211 0.0 0.0 0.00 0.00 0.00 64 1010.4
20260902231607 91 211 0.0 0.0 0.00 0.00 0.00 62 1010.5
20260902230106 92 211 0.0 0.0 0.00 0.00 0.00 60 1010.6
20260902224553 92 209 0.0 0.0 0.00 0.00 0.00 60 1010.6
20260902223052 93 259 0.0 0.0 0.00 0.00 0.00 58 1010.5
20260902221551 93 244 0.0 0.0 0.00 0.00 0.00 57 1010.5
20260902220057 93 286 0.0 0.0 0.00 0.00 0.00 57 1010.6
20260902214550 93 236 0.0 0.0 0.00 0.00 0.00 57 1010.6
20260902213050 93 261 0.0 5.0 0.00 0.00 0.00 58 1010.7
20260902211548 93 205 0.0 0.0 0.00 0.00 0.00 57 1010.8
20260902210049 93 295 0.0 1.0 0.00 0.00 0.00 56 1010.9
20260902204544 93 278 0.0 0.0 0.00 0.00 0.00 58 1010.9
20260902203041 93 190 0.0 5.0 0.00 0.00 0.00 56 1011.0
20260902201541 93 262 0.0 0.0 0.00 0.00 0.00 56 1011.1
20260902200039 93 244 0.0 0.0 0.00 0.00 0.00 58 1011.3
20260902194536 92 252 0.0 5.0 0.00 0.00 0.00 59 1011.5
20260902193037 92 244 0.0 3.0 0.00 0.00 0.00 56 1011.5
20260902191534 92 284 0.0 3.0 0.00 0.00 0.00 56 1011.7
20260902190033 92 265 0.0 4.0 0.00 0.00 0.00 58 1011.9
20260902184530 91 246 0.0 1.0 0.00 0.00 0.00 60 1012.0
20260902183029 91 263 0.0 1.0 0.00 0.00 0.00 62 1012.1
20260902181527 91 195 0.0 0.0 0.00 0.00 0.00 62 1012.2
20260902180025 90 286 0.0 3.0 0.00 0.00 0.00 64 1012.3
20260902174526 90 251 0.0 0.0 0.00 0.00 0.00 65 1012.3
20260902173032 90 279 0.0 7.0 0.00 0.00 0.00 65 1012.6
20260902171523 90 248 0.0 5.0 0.00 0.00 0.00 63 1012.8
20260902170021 90 183 0.0 1.0 0.00 0.00 0.00 64 1012.9
20260902164520 90 203 0.0 0.0 0.00 0.00 0.00 66 1012.9
20260902163019 89 279 0.0 0.0 0.00 0.00 0.00 65 1013.1
20260902161533 88 284 0.0 1.0 0.00 0.00 0.00 67 1013.3
20260902160014 88 250 0.0 0.0 0.00 0.00 0.00 69 1013.4
20260902154514 87 212 0.0 0.0 0.00 0.00 0.00 71 1013.5
20260902153010 86 273 0.0 1.0 0.00 0.00 0.00 72 1013.5
20260902151511 86 302 0.0 0.0 0.00 0.00 0.00 73 1013.5
20260902150007 85 207 0.0 0.0 0.00 0.00 0.00 73 1013.5
20260902144503 84 223 0.0 0.0 0.00 0.00 0.00 76 1013.6
20260902143059 84 267 0.0 0.0 0.00 0.00 0.00 77 1013.6
20260902141555 82 259 0.0 0.0 0.00 0.00 0.00 79 1013.5
20260902140053 81 197 0.0 0.0 0.00 0.00 0.00 81 1013.5
20260902134549 80 224 0.0 0.0 0.00 0.00 0.00 83 1013.5
20260902133044 79 190 0.0 0.0 0.00 0.00 0.00 85 1013.4
20260902131540 77 180 0.0 0.0 0.00 0.00 0.00 86 1013.5
20260902130042 76 194 0.0 0.0 0.00 0.00 0.00 89 1013.4
20260902124534 73 298 0.0 0.0 0.00 0.00 0.00 95 1013.3
20260902123032 72 300 0.0 0.0 0.00 0.00 0.00 97 1013.3
20260902121534 71 300 0.0 0.0 0.00 0.00 0.00 97 1013.3
20260902120030 70 300 0.0 0.0 0.00 0.00 0.00 97 1013.2
20260902114602 70 300 0.0 0.0 0.00 0.00 0.00 97 1013.0
20260902113027 69 300 0.0 0.0 0.00 0.00 0.00 96 1012.8
20260902111526 69 252 0.0 0.0 0.00 0.00 0.00 96 1012.6
20260902110036 69 252 0.0 0.0 0.00 0.00 0.00 95 1012.7
20260902104535 70 252 0.0 0.0 0.00 0.00 0.00 95 1012.7
20260902103024 70 252 0.0 0.0 0.00 0.00 0.00 95 1012.6
20260902101520 70 252 0.0 0.0 0.00 0.00 0.00 95 1012.5
20260902100020 70 252 0.0 0.0 0.00 0.00 0.00 95 1012.5
20260902094519 70 252 0.0 0.0 0.00 0.00 0.00 95 1012.5
20260902093017 70 252 0.0 0.0 0.00 0.00 0.00 95 1012.6
20260902091516 70 252 0.0 0.0 0.00 0.00 0.00 95 1012.5
20260902090014 70 252 0.0 0.0 0.00 0.00 0.00 95 1012.4
20260902084522 71 252 0.0 0.0 0.00 0.00 0.00 95 1012.2
20260902083010 71 252 0.0 0.0 0.00 0.00 0.00 94 1012.0
20260902081508 71 252 0.0 0.0 0.00 0.00 0.00 94 1012.1
20260902080009 71 252 0.0 0.0 0.00 0.00 0.00 94 1012.0
20260902074504 71 252 0.0 0.0 0.00 0.00 0.00 94 1011.9
20260902073004 71 252 0.0 0.0 0.00 0.00 0.00 93 1011.9
20260902071502 72 252 0.0 0.0 0.00 0.00 0.00 93 1011.8
20260902070003 72 252 0.0 0.0 0.00 0.00 0.00 93 1011.8
20260902064602 72 252 0.0 0.0 0.00 0.00 0.00 93 1011.7
20260902063058 72 252 0.0 0.0 0.00 0.00 0.00 92 1011.7
20260902061557 72 252 0.0 0.0 0.00 0.00 0.00 93 1011.7
20260902060100 73 252 0.0 0.0 0.00 0.00 0.00 92 1011.7
20260902054554 73 252 0.0 0.0 0.00 0.00 0.00 92 1011.8
20260902053101 73 252 0.0 0.0 0.00 0.00 0.00 92 1011.8
20260902051556 73 252 0.0 0.0 0.00 0.00 0.00 92 1011.8
20260902050052 74 252 0.0 0.0 0.00 0.00 0.00 91 1011.8
20260902044548 74 252 0.0 0.0 0.00 0.00 0.00 91 1011.8
20260902043046 74 252 0.0 0.0 0.00 0.00 0.00 91 1011.9
20260902041545 74 252 0.0 0.0 0.00 0.00 0.00 91 1011.8
20260902040045 75 252 0.0 0.0 0.00 0.00 0.00 91 1011.9
20260902034558 75 252 0.0 0.0 0.00 0.00 0.00 90 1011.8